sensor_id;sensor_type;location;lat;lon;timestamp;P1;durP1;ratioP1;P2;durP2;ratioP2
51810;SDS011;52468;40.116;18.296;2023-03-31T00:01:00;8.13;;;4.03;;
51810;SDS011;52468;40.116;18.296;2023-03-31T00:03:30;7.07;;;3.60;;
51810;SDS011;52468;40.116;18.296;2023-03-31T00:06:00;15.47;;;4.40;;
51810;SDS011;52468;40.116;18.296;2023-03-31T00:08:28;7.43;;;5.17;;
51810;SDS011;52468;40.116;18.296;2023-03-31T00:11:03;4.77;;;4.27;;
51810;SDS011;52468;40.116;18.296;2023-03-31T00:13:33;6.97;;;4.13;;
51810;SDS011;52468;40.116;18.296;2023-03-31T00:16:06;5.57;;;3.60;;
51810;SDS011;52468;40.116;18.296;2023-03-31T00:18:36;11.15;;;4.75;;
51810;SDS011;52468;40.116;18.296;2023-03-31T00:23:36;7.37;;;4.60;;
51810;SDS011;52468;40.116;18.296;2023-03-31T00:26:04;4.60;;;3.63;;
51810;SDS011;52468;40.116;18.296;2023-03-31T00:28:32;7.47;;;4.33;;
51810;SDS011;52468;40.116;18.296;2023-03-31T00:31:03;10.20;;;5.27;;
51810;SDS011;52468;40.116;18.296;2023-03-31T00:33:31;8.87;;;4.67;;
51810;SDS011;52468;40.116;18.296;2023-03-31T00:35:59;11.07;;;4.27;;
51810;SDS011;52468;40.116;18.296;2023-03-31T00:38:28;7.00;;;4.13;;
51810;SDS011;52468;40.116;18.296;2023-03-31T00:40:57;9.83;;;4.93;;
51810;SDS011;52468;40.116;18.296;2023-03-31T00:48:50;14.00;;;4.87;;
51810;SDS011;52468;40.116;18.296;2023-03-31T00:51:27;6.37;;;4.03;;
51810;SDS011;52468;40.116;18.296;2023-03-31T00:53:58;8.23;;;5.05;;
51810;SDS011;52468;40.116;18.296;2023-03-31T00:56:32;4.97;;;4.10;;
51810;SDS011;52468;40.116;18.296;2023-03-31T00:59:04;8.70;;;4.77;;
51810;SDS011;52468;40.116;18.296;2023-03-31T01:01:35;6.07;;;4.30;;
51810;SDS011;52468;40.116;18.296;2023-03-31T01:04:05;14.33;;;6.90;;
51810;SDS011;52468;40.116;18.296;2023-03-31T01:06:42;7.43;;;4.97;;
51810;SDS011;52468;40.116;18.296;2023-03-31T01:09:17;10.63;;;5.47;;
51810;SDS011;52468;40.116;18.296;2023-03-31T01:11:46;6.27;;;5.07;;
51810;SDS011;52468;40.116;18.296;2023-03-31T01:14:15;8.20;;;5.10;;
51810;SDS011;52468;40.116;18.296;2023-03-31T01:16:43;11.50;;;5.00;;
51810;SDS011;52468;40.116;18.296;2023-03-31T01:19:14;12.40;;;4.53;;
51810;SDS011;52468;40.116;18.296;2023-03-31T01:33:28;10.97;;;5.47;;
51810;SDS011;52468;40.116;18.296;2023-03-31T01:39:25;8.33;;;5.83;;
51810;SDS011;52468;40.116;18.296;2023-03-31T01:55:49;15.77;;;7.07;;
51810;SDS011;52468;40.116;18.296;2023-03-31T01:58:29;14.13;;;7.87;;
51810;SDS011;52468;40.116;18.296;2023-03-31T02:01:09;14.00;;;7.73;;
51810;SDS011;52468;40.116;18.296;2023-03-31T02:04:13;15.60;;;8.30;;
51810;SDS011;52468;40.116;18.296;2023-03-31T02:06:50;14.63;;;9.63;;
51810;SDS011;52468;40.116;18.296;2023-03-31T02:09:31;14.63;;;6.93;;
51810;SDS011;52468;40.116;18.296;2023-03-31T02:12:06;16.83;;;9.23;;
51810;SDS011;52468;40.116;18.296;2023-03-31T02:14:38;13.80;;;7.73;;
51810;SDS011;52468;40.116;18.296;2023-03-31T02:17:10;17.67;;;8.50;;
51810;SDS011;52468;40.116;18.296;2023-03-31T02:19:44;15.10;;;8.33;;
51810;SDS011;52468;40.116;18.296;2023-03-31T02:22:16;16.13;;;8.00;;
51810;SDS011;52468;40.116;18.296;2023-03-31T02:24:48;17.93;;;7.30;;
51810;SDS011;52468;40.116;18.296;2023-03-31T02:27:26;20.73;;;8.07;;
51810;SDS011;52468;40.116;18.296;2023-03-31T02:30:00;16.23;;;9.60;;
51810;SDS011;52468;40.116;18.296;2023-03-31T02:32:31;23.40;;;9.77;;
51810;SDS011;52468;40.116;18.296;2023-03-31T02:35:08;13.17;;;7.83;;
51810;SDS011;52468;40.116;18.296;2023-03-31T02:37:39;15.40;;;9.47;;
51810;SDS011;52468;40.116;18.296;2023-03-31T02:40:10;18.13;;;8.83;;
51810;SDS011;52468;40.116;18.296;2023-03-31T02:42:43;16.70;;;8.43;;
51810;SDS011;52468;40.116;18.296;2023-03-31T02:48:04;12.70;;;8.60;;
51810;SDS011;52468;40.116;18.296;2023-03-31T02:50:39;14.43;;;9.13;;
51810;SDS011;52468;40.116;18.296;2023-03-31T02:56:08;16.17;;;9.53;;
51810;SDS011;52468;40.116;18.296;2023-03-31T02:59:16;13.27;;;8.67;;
51810;SDS011;52468;40.116;18.296;2023-03-31T03:10:16;21.33;;;8.60;;
51810;SDS011;52468;40.116;18.296;2023-03-31T03:15:32;18.10;;;7.97;;
51810;SDS011;52468;40.116;18.296;2023-03-31T03:18:07;15.20;;;8.87;;
51810;SDS011;52468;40.116;18.296;2023-03-31T03:20:37;14.30;;;7.70;;
51810;SDS011;52468;40.116;18.296;2023-03-31T03:23:06;11.97;;;7.27;;
51810;SDS011;52468;40.116;18.296;2023-03-31T03:25:34;21.43;;;9.10;;
51810;SDS011;52468;40.116;18.296;2023-03-31T03:28:02;20.90;;;8.23;;
51810;SDS011;52468;40.116;18.296;2023-03-31T03:30:29;18.97;;;9.67;;
51810;SDS011;52468;40.116;18.296;2023-03-31T03:32:57;16.30;;;8.97;;
51810;SDS011;52468;40.116;18.296;2023-03-31T03:35:25;23.00;;;9.77;;
51810;SDS011;52468;40.116;18.296;2023-03-31T03:37:53;25.93;;;10.63;;
51810;SDS011;52468;40.116;18.296;2023-03-31T03:40:21;20.63;;;9.53;;
51810;SDS011;52468;40.116;18.296;2023-03-31T03:42:49;21.27;;;10.63;;
51810;SDS011;52468;40.116;18.296;2023-03-31T03:45:16;35.87;;;11.87;;
51810;SDS011;52468;40.116;18.296;2023-03-31T03:47:44;19.80;;;10.93;;
51810;SDS011;52468;40.116;18.296;2023-03-31T03:50:12;23.97;;;10.23;;
51810;SDS011;52468;40.116;18.296;2023-03-31T03:52:42;18.03;;;9.00;;
51810;SDS011;52468;40.116;18.296;2023-03-31T03:55:10;21.17;;;11.20;;
51810;SDS011;52468;40.116;18.296;2023-03-31T03:57:38;18.60;;;9.70;;
51810;SDS011;52468;40.116;18.296;2023-03-31T04:00:06;21.63;;;9.13;;
51810;SDS011;52468;40.116;18.296;2023-03-31T04:02:38;25.03;;;9.33;;
51810;SDS011;52468;40.116;18.296;2023-03-31T04:05:06;14.83;;;9.47;;
51810;SDS011;52468;40.116;18.296;2023-03-31T04:07:34;17.60;;;10.43;;
51810;SDS011;52468;40.116;18.296;2023-03-31T04:10:02;24.10;;;9.47;;
51810;SDS011;52468;40.116;18.296;2023-03-31T04:12:32;18.67;;;8.33;;
51810;SDS011;52468;40.116;18.296;2023-03-31T04:15:03;17.05;;;8.70;;
51810;SDS011;52468;40.116;18.296;2023-03-31T04:17:32;18.63;;;10.27;;
51810;SDS011;52468;40.116;18.296;2023-03-31T04:20:02;31.87;;;9.93;;
51810;SDS011;52468;40.116;18.296;2023-03-31T04:22:32;31.23;;;11.33;;
51810;SDS011;52468;40.116;18.296;2023-03-31T04:25:02;22.03;;;9.07;;
51810;SDS011;52468;40.116;18.296;2023-03-31T04:27:31;22.37;;;9.90;;
51810;SDS011;52468;40.116;18.296;2023-03-31T04:30:01;22.90;;;8.60;;
51810;SDS011;52468;40.116;18.296;2023-03-31T04:32:29;17.60;;;8.77;;
51810;SDS011;52468;40.116;18.296;2023-03-31T04:34:59;14.30;;;8.57;;
51810;SDS011;52468;40.116;18.296;2023-03-31T04:37:29;22.63;;;9.37;;
51810;SDS011;52468;40.116;18.296;2023-03-31T04:40:01;22.03;;;10.03;;
51810;SDS011;52468;40.116;18.296;2023-03-31T04:42:35;23.93;;;10.77;;
51810;SDS011;52468;40.116;18.296;2023-03-31T04:45:03;17.73;;;9.00;;
51810;SDS011;52468;40.116;18.296;2023-03-31T04:47:32;21.27;;;9.33;;
51810;SDS011;52468;40.116;18.296;2023-03-31T04:49:59;17.90;;;9.13;;
51810;SDS011;52468;40.116;18.296;2023-03-31T04:52:27;20.57;;;9.37;;
51810;SDS011;52468;40.116;18.296;2023-03-31T04:54:55;24.40;;;9.53;;
51810;SDS011;52468;40.116;18.296;2023-03-31T04:57:23;18.07;;;9.23;;
51810;SDS011;52468;40.116;18.296;2023-03-31T04:59:51;29.57;;;10.13;;
51810;SDS011;52468;40.116;18.296;2023-03-31T05:02:19;21.83;;;9.17;;
51810;SDS011;52468;40.116;18.296;2023-03-31T05:04:51;24.33;;;10.87;;
51810;SDS011;52468;40.116;18.296;2023-03-31T05:07:19;18.97;;;9.50;;
51810;SDS011;52468;40.116;18.296;2023-03-31T05:09:47;35.67;;;11.07;;
51810;SDS011;52468;40.116;18.296;2023-03-31T05:12:14;20.60;;;10.73;;
51810;SDS011;52468;40.116;18.296;2023-03-31T05:14:42;21.03;;;8.70;;
51810;SDS011;52468;40.116;18.296;2023-03-31T05:17:10;17.47;;;8.90;;
51810;SDS011;52468;40.116;18.296;2023-03-31T05:19:38;17.20;;;9.33;;
51810;SDS011;52468;40.116;18.296;2023-03-31T05:22:06;20.53;;;9.40;;
51810;SDS011;52468;40.116;18.296;2023-03-31T05:24:34;25.10;;;12.27;;
51810;SDS011;52468;40.116;18.296;2023-03-31T05:27:02;23.43;;;9.43;;
51810;SDS011;52468;40.116;18.296;2023-03-31T05:29:30;20.63;;;9.07;;
51810;SDS011;52468;40.116;18.296;2023-03-31T05:31:58;30.13;;;9.67;;
51810;SDS011;52468;40.116;18.296;2023-03-31T05:34:26;26.20;;;9.23;;
51810;SDS011;52468;40.116;18.296;2023-03-31T05:36:54;31.37;;;10.93;;
51810;SDS011;52468;40.116;18.296;2023-03-31T05:39:21;27.93;;;9.40;;
51810;SDS011;52468;40.116;18.296;2023-03-31T05:41:49;26.27;;;10.37;;
51810;SDS011;52468;40.116;18.296;2023-03-31T05:44:17;28.47;;;12.67;;
51810;SDS011;52468;40.116;18.296;2023-03-31T05:46:46;29.03;;;9.67;;
51810;SDS011;52468;40.116;18.296;2023-03-31T05:49:14;23.93;;;8.93;;
51810;SDS011;52468;40.116;18.296;2023-03-31T05:51:43;22.57;;;11.83;;
51810;SDS011;52468;40.116;18.296;2023-03-31T05:54:11;27.03;;;9.10;;
51810;SDS011;52468;40.116;18.296;2023-03-31T05:56:39;16.10;;;7.93;;
51810;SDS011;52468;40.116;18.296;2023-03-31T05:59:07;23.03;;;8.33;;
51810;SDS011;52468;40.116;18.296;2023-03-31T06:01:35;26.97;;;9.10;;
51810;SDS011;52468;40.116;18.296;2023-03-31T06:04:03;26.73;;;9.90;;
51810;SDS011;52468;40.116;18.296;2023-03-31T06:06:31;29.80;;;9.40;;
51810;SDS011;52468;40.116;18.296;2023-03-31T06:09:03;23.57;;;10.10;;
51810;SDS011;52468;40.116;18.296;2023-03-31T06:11:31;22.93;;;8.80;;
51810;SDS011;52468;40.116;18.296;2023-03-31T06:13:59;19.33;;;7.77;;
51810;SDS011;52468;40.116;18.296;2023-03-31T06:16:27;18.10;;;8.23;;
51810;SDS011;52468;40.116;18.296;2023-03-31T06:18:55;29.97;;;8.80;;
51810;SDS011;52468;40.116;18.296;2023-03-31T06:21:23;24.20;;;8.00;;
51810;SDS011;52468;40.116;18.296;2023-03-31T06:23:51;20.60;;;9.23;;
51810;SDS011;52468;40.116;18.296;2023-03-31T06:26:22;22.93;;;6.50;;
51810;SDS011;52468;40.116;18.296;2023-03-31T06:28:50;19.50;;;6.20;;
51810;SDS011;52468;40.116;18.296;2023-03-31T06:31:20;16.17;;;5.77;;
51810;SDS011;52468;40.116;18.296;2023-03-31T06:33:49;13.73;;;5.57;;
51810;SDS011;52468;40.116;18.296;2023-03-31T06:36:18;12.63;;;3.93;;
51810;SDS011;52468;40.116;18.296;2023-03-31T06:38:48;19.43;;;5.43;;
51810;SDS011;52468;40.116;18.296;2023-03-31T06:41:17;9.77;;;5.57;;
51810;SDS011;52468;40.116;18.296;2023-03-31T06:43:47;8.07;;;3.30;;
51810;SDS011;52468;40.116;18.296;2023-03-31T06:46:16;13.93;;;4.83;;
51810;SDS011;52468;40.116;18.296;2023-03-31T06:48:44;8.23;;;2.87;;
51810;SDS011;52468;40.116;18.296;2023-03-31T06:51:16;13.13;;;3.67;;
51810;SDS011;52468;40.116;18.296;2023-03-31T06:53:44;13.03;;;3.23;;
51810;SDS011;52468;40.116;18.296;2023-03-31T06:56:12;11.37;;;2.87;;
51810;SDS011;52468;40.116;18.296;2023-03-31T06:58:40;8.93;;;2.47;;
51810;SDS011;52468;40.116;18.296;2023-03-31T07:01:08;7.13;;;3.47;;
51810;SDS011;52468;40.116;18.296;2023-03-31T07:03:37;7.57;;;3.60;;
51810;SDS011;52468;40.116;18.296;2023-03-31T07:06:05;15.93;;;4.13;;
51810;SDS011;52468;40.116;18.296;2023-03-31T07:08:33;7.77;;;3.20;;
51810;SDS011;52468;40.116;18.296;2023-03-31T07:11:01;7.37;;;2.83;;
51810;SDS011;52468;40.116;18.296;2023-03-31T07:13:29;10.37;;;4.43;;
51810;SDS011;52468;40.116;18.296;2023-03-31T07:15:57;10.77;;;4.03;;
51810;SDS011;52468;40.116;18.296;2023-03-31T07:18:25;5.37;;;2.30;;
51810;SDS011;52468;40.116;18.296;2023-03-31T07:21:00;7.87;;;2.83;;
51810;SDS011;52468;40.116;18.296;2023-03-31T07:23:30;15.33;;;3.60;;
51810;SDS011;52468;40.116;18.296;2023-03-31T07:25:57;11.37;;;6.33;;
51810;SDS011;52468;40.116;18.296;2023-03-31T07:28:28;16.83;;;6.43;;
51810;SDS011;52468;40.116;18.296;2023-03-31T07:30:57;12.60;;;3.87;;
51810;SDS011;52468;40.116;18.296;2023-03-31T07:33:25;10.67;;;6.17;;
51810;SDS011;52468;40.116;18.296;2023-03-31T07:35:53;31.77;;;8.37;;
51810;SDS011;52468;40.116;18.296;2023-03-31T07:38:29;29.27;;;16.33;;
51810;SDS011;52468;40.116;18.296;2023-03-31T07:40:57;24.17;;;12.70;;
51810;SDS011;52468;40.116;18.296;2023-03-31T07:43:31;7.37;;;3.70;;
51810;SDS011;52468;40.116;18.296;2023-03-31T07:45:59;10.30;;;2.63;;
51810;SDS011;52468;40.116;18.296;2023-03-31T07:48:27;7.60;;;2.80;;
51810;SDS011;52468;40.116;18.296;2023-03-31T07:50:55;8.20;;;2.80;;
51810;SDS011;52468;40.116;18.296;2023-03-31T07:53:30;13.53;;;3.37;;
51810;SDS011;52468;40.116;18.296;2023-03-31T07:55:58;9.47;;;2.60;;
51810;SDS011;52468;40.116;18.296;2023-03-31T07:58:26;9.03;;;3.77;;
51810;SDS011;52468;40.116;18.296;2023-03-31T08:00:55;8.53;;;2.07;;
51810;SDS011;52468;40.116;18.296;2023-03-31T08:03:23;8.13;;;2.70;;
51810;SDS011;52468;40.116;18.296;2023-03-31T08:05:51;10.43;;;3.87;;
51810;SDS011;52468;40.116;18.296;2023-03-31T08:08:19;14.20;;;5.43;;
51810;SDS011;52468;40.116;18.296;2023-03-31T08:10:48;7.77;;;2.57;;
51810;SDS011;52468;40.116;18.296;2023-03-31T08:13:16;6.57;;;2.87;;
51810;SDS011;52468;40.116;18.296;2023-03-31T08:15:44;6.47;;;2.60;;
51810;SDS011;52468;40.116;18.296;2023-03-31T08:18:12;11.93;;;3.20;;
51810;SDS011;52468;40.116;18.296;2023-03-31T08:20:39;6.93;;;3.23;;
51810;SDS011;52468;40.116;18.296;2023-03-31T08:23:07;7.70;;;3.03;;
51810;SDS011;52468;40.116;18.296;2023-03-31T08:25:37;9.80;;;4.47;;
51810;SDS011;52468;40.116;18.296;2023-03-31T08:28:05;11.47;;;2.60;;
51810;SDS011;52468;40.116;18.296;2023-03-31T08:30:37;6.87;;;3.63;;
51810;SDS011;52468;40.116;18.296;2023-03-31T08:33:05;5.73;;;2.63;;
51810;SDS011;52468;40.116;18.296;2023-03-31T08:35:38;7.95;;;2.28;;
51810;SDS011;52468;40.116;18.296;2023-03-31T08:38:06;9.93;;;3.47;;
51810;SDS011;52468;40.116;18.296;2023-03-31T08:40:34;5.87;;;1.83;;
51810;SDS011;52468;40.116;18.296;2023-03-31T08:43:10;4.83;;;1.93;;
51810;SDS011;52468;40.116;18.296;2023-03-31T08:45:43;8.52;;;2.20;;
51810;SDS011;52468;40.116;18.296;2023-03-31T08:48:19;7.03;;;2.93;;
51810;SDS011;52468;40.116;18.296;2023-03-31T08:50:56;9.53;;;3.63;;
51810;SDS011;52468;40.116;18.296;2023-03-31T08:53:42;5.97;;;2.93;;
51810;SDS011;52468;40.116;18.296;2023-03-31T08:56:21;8.50;;;3.20;;
51810;SDS011;52468;40.116;18.296;2023-03-31T08:58:52;10.13;;;2.80;;
51810;SDS011;52468;40.116;18.296;2023-03-31T09:15:23;8.70;;;3.80;;
51810;SDS011;52468;40.116;18.296;2023-03-31T09:17:57;7.37;;;3.77;;
51810;SDS011;52468;40.116;18.296;2023-03-31T09:20:33;8.57;;;2.77;;
51810;SDS011;52468;40.116;18.296;2023-03-31T09:25:46;9.33;;;3.10;;
51810;SDS011;52468;40.116;18.296;2023-03-31T09:28:19;8.53;;;2.87;;
51810;SDS011;52468;40.116;18.296;2023-03-31T09:30:49;14.10;;;2.73;;
51810;SDS011;52468;40.116;18.296;2023-03-31T09:33:18;11.83;;;4.53;;
51810;SDS011;52468;40.116;18.296;2023-03-31T09:35:58;11.50;;;2.20;;
51810;SDS011;52468;40.116;18.296;2023-03-31T09:38:27;8.93;;;2.17;;
51810;SDS011;52468;40.116;18.296;2023-03-31T09:40:57;9.63;;;3.47;;
51810;SDS011;52468;40.116;18.296;2023-03-31T09:43:28;7.90;;;3.33;;
51810;SDS011;52468;40.116;18.296;2023-03-31T09:45:57;7.87;;;3.37;;
51810;SDS011;52468;40.116;18.296;2023-03-31T09:48:34;13.00;;;2.67;;
51810;SDS011;52468;40.116;18.296;2023-03-31T09:51:05;9.03;;;3.33;;
51810;SDS011;52468;40.116;18.296;2023-03-31T09:53:51;7.80;;;2.97;;
51810;SDS011;52468;40.116;18.296;2023-03-31T09:56:58;6.57;;;2.10;;
51810;SDS011;52468;40.116;18.296;2023-03-31T10:02:05;11.93;;;3.20;;
51810;SDS011;52468;40.116;18.296;2023-03-31T10:05:00;9.10;;;2.73;;
51810;SDS011;52468;40.116;18.296;2023-03-31T10:07:30;7.10;;;2.43;;
51810;SDS011;52468;40.116;18.296;2023-03-31T10:09:58;6.47;;;2.87;;
51810;SDS011;52468;40.116;18.296;2023-03-31T10:12:28;6.73;;;3.40;;
51810;SDS011;52468;40.116;18.296;2023-03-31T10:15:02;4.83;;;2.13;;
51810;SDS011;52468;40.116;18.296;2023-03-31T10:17:43;7.97;;;2.60;;
51810;SDS011;52468;40.116;18.296;2023-03-31T10:20:30;13.30;;;4.07;;
51810;SDS011;52468;40.116;18.296;2023-03-31T10:23:14;8.33;;;3.13;;
51810;SDS011;52468;40.116;18.296;2023-03-31T10:26:00;9.63;;;2.83;;
51810;SDS011;52468;40.116;18.296;2023-03-31T10:28:30;6.63;;;2.93;;
51810;SDS011;52468;40.116;18.296;2023-03-31T10:31:00;8.43;;;2.00;;
51810;SDS011;52468;40.116;18.296;2023-03-31T10:33:30;4.60;;;2.60;;
51810;SDS011;52468;40.116;18.296;2023-03-31T10:36:02;13.50;;;3.43;;
51810;SDS011;52468;40.116;18.296;2023-03-31T10:38:36;10.40;;;3.67;;
51810;SDS011;52468;40.116;18.296;2023-03-31T10:41:08;8.40;;;2.20;;
51810;SDS011;52468;40.116;18.296;2023-03-31T10:43:41;9.90;;;3.07;;
51810;SDS011;52468;40.116;18.296;2023-03-31T10:46:14;12.00;;;3.67;;
51810;SDS011;52468;40.116;18.296;2023-03-31T10:48:42;6.13;;;2.63;;
51810;SDS011;52468;40.116;18.296;2023-03-31T10:53:50;7.10;;;2.20;;
51810;SDS011;52468;40.116;18.296;2023-03-31T10:59:29;5.23;;;1.97;;
51810;SDS011;52468;40.116;18.296;2023-03-31T11:15:39;5.30;;;2.10;;
51810;SDS011;52468;40.116;18.296;2023-03-31T11:26:46;3.93;;;2.13;;
51810;SDS011;52468;40.116;18.296;2023-03-31T11:29:32;7.07;;;2.03;;
51810;SDS011;52468;40.116;18.296;2023-03-31T11:35:31;8.10;;;2.07;;
51810;SDS011;52468;40.116;18.296;2023-03-31T11:41:07;4.20;;;1.87;;
51810;SDS011;52468;40.116;18.296;2023-03-31T11:43:49;4.30;;;2.90;;
51810;SDS011;52468;40.116;18.296;2023-03-31T11:46:29;6.77;;;2.30;;
51810;SDS011;52468;40.116;18.296;2023-03-31T11:49:19;7.63;;;3.00;;
51810;SDS011;52468;40.116;18.296;2023-03-31T11:55:00;8.23;;;3.53;;
51810;SDS011;52468;40.116;18.296;2023-03-31T11:57:46;3.53;;;1.60;;
51810;SDS011;52468;40.116;18.296;2023-03-31T12:00:21;6.63;;;2.67;;
51810;SDS011;52468;40.116;18.296;2023-03-31T12:02:54;8.77;;;3.03;;
51810;SDS011;52468;40.116;18.296;2023-03-31T12:05:25;10.97;;;3.47;;
51810;SDS011;52468;40.116;18.296;2023-03-31T12:07:58;38.07;;;27.53;;
51810;SDS011;52468;40.116;18.296;2023-03-31T12:10:35;10.07;;;4.63;;
51810;SDS011;52468;40.116;18.296;2023-03-31T12:16:08;11.83;;;4.03;;
51810;SDS011;52468;40.116;18.296;2023-03-31T12:18:41;6.00;;;3.23;;
51810;SDS011;52468;40.116;18.296;2023-03-31T12:21:17;7.17;;;3.70;;
51810;SDS011;52468;40.116;18.296;2023-03-31T12:23:46;8.83;;;3.43;;
51810;SDS011;52468;40.116;18.296;2023-03-31T12:28:52;6.13;;;4.10;;
51810;SDS011;52468;40.116;18.296;2023-03-31T12:31:27;8.10;;;3.33;;
51810;SDS011;52468;40.116;18.296;2023-03-31T12:34:06;9.97;;;4.13;;
51810;SDS011;52468;40.116;18.296;2023-03-31T12:42:21;4.83;;;2.20;;
51810;SDS011;52468;40.116;18.296;2023-03-31T12:56:20;8.30;;;3.47;;
51810;SDS011;52468;40.116;18.296;2023-03-31T12:58:48;7.90;;;3.77;;
51810;SDS011;52468;40.116;18.296;2023-03-31T13:01:25;7.83;;;4.27;;
51810;SDS011;52468;40.116;18.296;2023-03-31T13:04:16;4.83;;;2.20;;
51810;SDS011;52468;40.116;18.296;2023-03-31T13:06:51;9.47;;;2.40;;
51810;SDS011;52468;40.116;18.296;2023-03-31T13:12:06;8.47;;;3.67;;
51810;SDS011;52468;40.116;18.296;2023-03-31T13:14:35;11.03;;;3.20;;
51810;SDS011;52468;40.116;18.296;2023-03-31T13:17:49;5.37;;;2.23;;
51810;SDS011;52468;40.116;18.296;2023-03-31T13:23:02;7.73;;;4.03;;
51810;SDS011;52468;40.116;18.296;2023-03-31T13:25:45;13.80;;;6.93;;
51810;SDS011;52468;40.116;18.296;2023-03-31T13:30:55;18.13;;;9.33;;
51810;SDS011;52468;40.116;18.296;2023-03-31T13:58:31;12.43;;;3.33;;
51810;SDS011;52468;40.116;18.296;2023-03-31T14:07:17;7.23;;;4.10;;
51810;SDS011;52468;40.116;18.296;2023-03-31T14:09:57;7.38;;;4.07;;
51810;SDS011;52468;40.116;18.296;2023-03-31T14:12:29;10.47;;;4.40;;
51810;SDS011;52468;40.116;18.296;2023-03-31T14:15:00;8.23;;;2.70;;
51810;SDS011;52468;40.116;18.296;2023-03-31T14:17:29;8.10;;;2.87;;
51810;SDS011;52468;40.116;18.296;2023-03-31T14:28:29;7.93;;;3.10;;
51810;SDS011;52468;40.116;18.296;2023-03-31T14:37:10;14.17;;;5.17;;
51810;SDS011;52468;40.116;18.296;2023-03-31T14:39:45;9.67;;;3.50;;
51810;SDS011;52468;40.116;18.296;2023-03-31T14:42:16;16.80;;;8.37;;
51810;SDS011;52468;40.116;18.296;2023-03-31T14:44:46;15.67;;;5.73;;
51810;SDS011;52468;40.116;18.296;2023-03-31T14:47:15;8.90;;;4.07;;
51810;SDS011;52468;40.116;18.296;2023-03-31T14:50:04;10.20;;;3.53;;
51810;SDS011;52468;40.116;18.296;2023-03-31T14:52:45;14.17;;;5.50;;
51810;SDS011;52468;40.116;18.296;2023-03-31T14:55:15;12.37;;;4.83;;
51810;SDS011;52468;40.116;18.296;2023-03-31T14:57:45;7.63;;;3.40;;
51810;SDS011;52468;40.116;18.296;2023-03-31T15:00:17;12.00;;;4.17;;
51810;SDS011;52468;40.116;18.296;2023-03-31T15:03:00;20.27;;;5.33;;
51810;SDS011;52468;40.116;18.296;2023-03-31T15:05:34;16.20;;;5.70;;
51810;SDS011;52468;40.116;18.296;2023-03-31T15:08:05;13.73;;;5.27;;
51810;SDS011;52468;40.116;18.296;2023-03-31T15:10:38;11.45;;;3.35;;
51810;SDS011;52468;40.116;18.296;2023-03-31T15:13:09;11.47;;;4.00;;
51810;SDS011;52468;40.116;18.296;2023-03-31T15:15:42;11.30;;;6.28;;
51810;SDS011;52468;40.116;18.296;2023-03-31T15:18:13;12.87;;;4.83;;
51810;SDS011;52468;40.116;18.296;2023-03-31T15:20:43;10.67;;;5.00;;
51810;SDS011;52468;40.116;18.296;2023-03-31T15:23:19;12.53;;;5.07;;
51810;SDS011;52468;40.116;18.296;2023-03-31T15:26:02;14.03;;;5.60;;
51810;SDS011;52468;40.116;18.296;2023-03-31T15:31:08;15.38;;;3.50;;
51810;SDS011;52468;40.116;18.296;2023-03-31T15:33:38;9.23;;;4.20;;
51810;SDS011;52468;40.116;18.296;2023-03-31T15:36:09;14.87;;;4.67;;
51810;SDS011;52468;40.116;18.296;2023-03-31T15:38:38;17.03;;;4.67;;
51810;SDS011;52468;40.116;18.296;2023-03-31T15:41:12;24.23;;;4.93;;
51810;SDS011;52468;40.116;18.296;2023-03-31T15:43:46;18.87;;;4.33;;
51810;SDS011;52468;40.116;18.296;2023-03-31T15:46:47;12.90;;;4.20;;
51810;SDS011;52468;40.116;18.296;2023-03-31T15:49:24;8.07;;;5.10;;
51810;SDS011;52468;40.116;18.296;2023-03-31T15:51:53;30.40;;;15.23;;
51810;SDS011;52468;40.116;18.296;2023-03-31T15:54:36;16.37;;;7.83;;
51810;SDS011;52468;40.116;18.296;2023-03-31T15:57:07;19.13;;;10.77;;
51810;SDS011;52468;40.116;18.296;2023-03-31T15:59:46;26.67;;;8.73;;
51810;SDS011;52468;40.116;18.296;2023-03-31T16:02:23;12.40;;;4.83;;
51810;SDS011;52468;40.116;18.296;2023-03-31T16:04:54;19.67;;;5.57;;
51810;SDS011;52468;40.116;18.296;2023-03-31T16:07:25;14.80;;;6.93;;
51810;SDS011;52468;40.116;18.296;2023-03-31T16:10:00;11.20;;;5.13;;
51810;SDS011;52468;40.116;18.296;2023-03-31T16:12:30;13.00;;;5.78;;
51810;SDS011;52468;40.116;18.296;2023-03-31T16:15:06;15.93;;;5.00;;
51810;SDS011;52468;40.116;18.296;2023-03-31T16:20:10;14.50;;;4.77;;
51810;SDS011;52468;40.116;18.296;2023-03-31T16:22:46;14.00;;;4.97;;
51810;SDS011;52468;40.116;18.296;2023-03-31T16:25:20;14.32;;;5.15;;
51810;SDS011;52468;40.116;18.296;2023-03-31T16:30:37;11.20;;;6.03;;
51810;SDS011;52468;40.116;18.296;2023-03-31T16:33:08;15.80;;;4.43;;
51810;SDS011;52468;40.116;18.296;2023-03-31T16:35:45;14.80;;;5.47;;
51810;SDS011;52468;40.116;18.296;2023-03-31T16:38:22;18.57;;;6.17;;
51810;SDS011;52468;40.116;18.296;2023-03-31T16:40:52;15.67;;;5.50;;
51810;SDS011;52468;40.116;18.296;2023-03-31T16:43:23;17.87;;;5.57;;
51810;SDS011;52468;40.116;18.296;2023-03-31T16:45:56;12.95;;;6.20;;
51810;SDS011;52468;40.116;18.296;2023-03-31T16:48:26;14.97;;;5.10;;
51810;SDS011;52468;40.116;18.296;2023-03-31T16:50:57;8.20;;;4.40;;
51810;SDS011;52468;40.116;18.296;2023-03-31T16:53:27;24.37;;;6.07;;
51810;SDS011;52468;40.116;18.296;2023-03-31T16:55:57;13.03;;;5.50;;
51810;SDS011;52468;40.116;18.296;2023-03-31T16:58:25;11.50;;;5.87;;
51810;SDS011;52468;40.116;18.296;2023-03-31T17:00:56;27.07;;;5.77;;
51810;SDS011;52468;40.116;18.296;2023-03-31T17:03:24;35.80;;;16.17;;
51810;SDS011;52468;40.116;18.296;2023-03-31T17:05:53;22.90;;;14.00;;
51810;SDS011;52468;40.116;18.296;2023-03-31T17:08:24;26.93;;;14.87;;
51810;SDS011;52468;40.116;18.296;2023-03-31T17:11:14;15.40;;;8.53;;
51810;SDS011;52468;40.116;18.296;2023-03-31T17:13:42;34.37;;;11.00;;
51810;SDS011;52468;40.116;18.296;2023-03-31T17:16:11;24.27;;;8.30;;
51810;SDS011;52468;40.116;18.296;2023-03-31T17:18:45;19.70;;;7.93;;
51810;SDS011;52468;40.116;18.296;2023-03-31T17:21:13;17.20;;;7.83;;
51810;SDS011;52468;40.116;18.296;2023-03-31T17:23:42;24.80;;;5.87;;
51810;SDS011;52468;40.116;18.296;2023-03-31T17:26:11;23.50;;;7.37;;
51810;SDS011;52468;40.116;18.296;2023-03-31T17:28:39;25.00;;;6.77;;
51810;SDS011;52468;40.116;18.296;2023-03-31T17:31:11;13.23;;;6.67;;
51810;SDS011;52468;40.116;18.296;2023-03-31T17:33:40;12.90;;;6.47;;
51810;SDS011;52468;40.116;18.296;2023-03-31T17:36:09;20.70;;;6.53;;
51810;SDS011;52468;40.116;18.296;2023-03-31T17:38:37;19.80;;;6.30;;
51810;SDS011;52468;40.116;18.296;2023-03-31T17:41:07;22.93;;;7.63;;
51810;SDS011;52468;40.116;18.296;2023-03-31T17:43:37;19.10;;;8.23;;
51810;SDS011;52468;40.116;18.296;2023-03-31T17:46:06;23.73;;;8.17;;
51810;SDS011;52468;40.116;18.296;2023-03-31T17:48:38;17.43;;;6.10;;
51810;SDS011;52468;40.116;18.296;2023-03-31T17:51:07;19.07;;;8.03;;
51810;SDS011;52468;40.116;18.296;2023-03-31T17:53:40;14.65;;;7.00;;
51810;SDS011;52468;40.116;18.296;2023-03-31T17:56:09;22.57;;;8.07;;
51810;SDS011;52468;40.116;18.296;2023-03-31T17:58:38;21.37;;;9.47;;
51810;SDS011;52468;40.116;18.296;2023-03-31T18:01:06;23.73;;;7.50;;
51810;SDS011;52468;40.116;18.296;2023-03-31T18:03:35;15.40;;;5.87;;
51810;SDS011;52468;40.116;18.296;2023-03-31T18:06:10;45.20;;;20.63;;
51810;SDS011;52468;40.116;18.296;2023-03-31T18:08:39;25.17;;;14.37;;